sensor_id;sensor_type;location;lat;lon;timestamp;P1;durP1;ratioP1;P2;durP2;ratioP2
15693;SDS011;7947;48.834;9.132;2023-11-19T00:02:46;2.30;;;0.60;;
15693;SDS011;7947;48.834;9.132;2023-11-19T00:05:52;0.70;;;0.63;;
15693;SDS011;7947;48.834;9.132;2023-11-19T00:08:57;1.13;;;0.73;;
15693;SDS011;7947;48.834;9.132;2023-11-19T00:12:01;1.27;;;0.80;;
15693;SDS011;7947;48.834;9.132;2023-11-19T00:15:06;0.70;;;0.70;;
15693;SDS011;7947;48.834;9.132;2023-11-19T00:18:13;0.73;;;0.50;;
15693;SDS011;7947;48.834;9.132;2023-11-19T00:21:19;0.80;;;0.60;;
15693;SDS011;7947;48.834;9.132;2023-11-19T00:24:24;0.60;;;0.50;;
15693;SDS011;7947;48.834;9.132;2023-11-19T00:27:27;2.03;;;1.40;;
15693;SDS011;7947;48.834;9.132;2023-11-19T00:30:31;1.20;;;0.57;;
15693;SDS011;7947;48.834;9.132;2023-11-19T00:33:35;1.23;;;0.63;;
15693;SDS011;7947;48.834;9.132;2023-11-19T00:36:52;0.40;;;0.20;;
15693;SDS011;7947;48.834;9.132;2023-11-19T00:39:56;0.53;;;0.47;;
15693;SDS011;7947;48.834;9.132;2023-11-19T00:43:01;0.63;;;0.40;;
15693;SDS011;7947;48.834;9.132;2023-11-19T00:46:06;0.47;;;0.30;;
15693;SDS011;7947;48.834;9.132;2023-11-19T00:49:12;0.40;;;0.30;;
15693;SDS011;7947;48.834;9.132;2023-11-19T00:52:18;0.57;;;0.33;;
15693;SDS011;7947;48.834;9.132;2023-11-19T00:55:23;0.60;;;0.40;;
15693;SDS011;7947;48.834;9.132;2023-11-19T00:58:27;0.43;;;0.20;;
15693;SDS011;7947;48.834;9.132;2023-11-19T01:01:31;2.90;;;0.60;;
15693;SDS011;7947;48.834;9.132;2023-11-19T01:04:35;0.73;;;0.40;;
15693;SDS011;7947;48.834;9.132;2023-11-19T01:07:41;0.20;;;0.20;;
15693;SDS011;7947;48.834;9.132;2023-11-19T01:10:46;0.10;;;0.10;;
15693;SDS011;7947;48.834;9.132;2023-11-19T01:13:49;0.23;;;0.23;;
15693;SDS011;7947;48.834;9.132;2023-11-19T01:16:53;0.60;;;0.40;;
15693;SDS011;7947;48.834;9.132;2023-11-19T01:19:58;0.53;;;0.30;;
15693;SDS011;7947;48.834;9.132;2023-11-19T01:23:03;2.23;;;0.47;;
15693;SDS011;7947;48.834;9.132;2023-11-19T01:26:07;0.80;;;0.40;;
15693;SDS011;7947;48.834;9.132;2023-11-19T01:29:12;0.30;;;0.30;;
15693;SDS011;7947;48.834;9.132;2023-11-19T01:32:17;0.70;;;0.20;;
15693;SDS011;7947;48.834;9.132;2023-11-19T01:35:21;0.23;;;0.20;;
15693;SDS011;7947;48.834;9.132;2023-11-19T01:38:30;0.20;;;0.10;;
15693;SDS011;7947;48.834;9.132;2023-11-19T01:41:34;0.30;;;0.10;;
15693;SDS011;7947;48.834;9.132;2023-11-19T01:44:38;0.90;;;0.50;;
15693;SDS011;7947;48.834;9.132;2023-11-19T01:47:42;0.30;;;0.20;;
15693;SDS011;7947;48.834;9.132;2023-11-19T01:50:46;0.20;;;0.20;;
15693;SDS011;7947;48.834;9.132;2023-11-19T01:53:51;0.50;;;0.20;;
15693;SDS011;7947;48.834;9.132;2023-11-19T01:56:55;0.23;;;0.23;;
15693;SDS011;7947;48.834;9.132;2023-11-19T02:00:00;0.17;;;0.13;;
15693;SDS011;7947;48.834;9.132;2023-11-19T02:03:05;0.20;;;0.17;;
15693;SDS011;7947;48.834;9.132;2023-11-19T02:06:10;0.10;;;0.10;;
15693;SDS011;7947;48.834;9.132;2023-11-19T02:09:15;0.13;;;0.13;;
15693;SDS011;7947;48.834;9.132;2023-11-19T02:12:21;0.90;;;0.40;;
15693;SDS011;7947;48.834;9.132;2023-11-19T02:15:24;0.23;;;0.10;;
15693;SDS011;7947;48.834;9.132;2023-11-19T02:18:28;0.50;;;0.30;;
15693;SDS011;7947;48.834;9.132;2023-11-19T02:21:32;0.17;;;0.03;;
15693;SDS011;7947;48.834;9.132;2023-11-19T02:24:37;0.20;;;0.10;;
15693;SDS011;7947;48.834;9.132;2023-11-19T02:27:45;0.50;;;0.10;;
15693;SDS011;7947;48.834;9.132;2023-11-19T02:30:57;0.00;;;0.00;;
15693;SDS011;7947;48.834;9.132;2023-11-19T02:34:01;0.13;;;0.13;;
15693;SDS011;7947;48.834;9.132;2023-11-19T02:37:05;0.17;;;0.17;;
15693;SDS011;7947;48.834;9.132;2023-11-19T02:40:09;0.30;;;0.10;;
15693;SDS011;7947;48.834;9.132;2023-11-19T02:43:17;0.40;;;0.10;;
15693;SDS011;7947;48.834;9.132;2023-11-19T02:46:21;0.00;;;0.00;;
15693;SDS011;7947;48.834;9.132;2023-11-19T02:49:25;0.20;;;0.10;;
15693;SDS011;7947;48.834;9.132;2023-11-19T02:52:28;0.63;;;0.20;;
15693;SDS011;7947;48.834;9.132;2023-11-19T02:55:36;0.20;;;0.10;;
15693;SDS011;7947;48.834;9.132;2023-11-19T02:58:44;1.70;;;0.00;;
15693;SDS011;7947;48.834;9.132;2023-11-19T03:01:48;0.43;;;0.30;;
15693;SDS011;7947;48.834;9.132;2023-11-19T03:04:52;0.40;;;0.20;;
15693;SDS011;7947;48.834;9.132;2023-11-19T03:07:56;0.10;;;0.10;;
15693;SDS011;7947;48.834;9.132;2023-11-19T03:10:59;0.20;;;0.17;;
15693;SDS011;7947;48.834;9.132;2023-11-19T03:14:04;0.13;;;0.08;;
15693;SDS011;7947;48.834;9.132;2023-11-19T03:17:09;0.45;;;0.25;;
15693;SDS011;7947;48.834;9.132;2023-11-19T03:20:13;0.30;;;0.13;;
15693;SDS011;7947;48.834;9.132;2023-11-19T03:23:19;0.10;;;0.10;;
15693;SDS011;7947;48.834;9.132;2023-11-19T03:26:22;0.30;;;0.27;;
15693;SDS011;7947;48.834;9.132;2023-11-19T03:29:27;0.23;;;0.10;;
15693;SDS011;7947;48.834;9.132;2023-11-19T03:32:31;0.53;;;0.10;;
15693;SDS011;7947;48.834;9.132;2023-11-19T03:35:35;0.30;;;0.17;;
15693;SDS011;7947;48.834;9.132;2023-11-19T03:38:39;0.57;;;0.20;;
15693;SDS011;7947;48.834;9.132;2023-11-19T03:41:45;0.13;;;0.13;;
15693;SDS011;7947;48.834;9.132;2023-11-19T03:44:51;0.37;;;0.20;;
15693;SDS011;7947;48.834;9.132;2023-11-19T03:47:55;0.10;;;0.10;;
15693;SDS011;7947;48.834;9.132;2023-11-19T03:50:59;0.13;;;0.13;;
15693;SDS011;7947;48.834;9.132;2023-11-19T03:54:02;0.30;;;0.17;;
15693;SDS011;7947;48.834;9.132;2023-11-19T03:57:08;0.67;;;0.10;;
15693;SDS011;7947;48.834;9.132;2023-11-19T04:00:15;0.37;;;0.20;;
15693;SDS011;7947;48.834;9.132;2023-11-19T04:03:19;0.60;;;0.20;;
15693;SDS011;7947;48.834;9.132;2023-11-19T04:06:22;0.30;;;0.10;;
15693;SDS011;7947;48.834;9.132;2023-11-19T04:09:26;0.10;;;0.10;;
15693;SDS011;7947;48.834;9.132;2023-11-19T04:12:29;0.20;;;0.10;;
15693;SDS011;7947;48.834;9.132;2023-11-19T04:15:35;0.10;;;0.10;;
15693;SDS011;7947;48.834;9.132;2023-11-19T04:18:39;0.40;;;0.20;;
15693;SDS011;7947;48.834;9.132;2023-11-19T04:21:42;0.17;;;0.10;;
15693;SDS011;7947;48.834;9.132;2023-11-19T04:24:46;0.13;;;0.10;;
15693;SDS011;7947;48.834;9.132;2023-11-19T04:27:50;1.50;;;0.20;;
15693;SDS011;7947;48.834;9.132;2023-11-19T04:30:55;0.20;;;0.20;;
15693;SDS011;7947;48.834;9.132;2023-11-19T04:33:59;0.10;;;0.10;;
15693;SDS011;7947;48.834;9.132;2023-11-19T04:37:03;0.10;;;0.10;;
15693;SDS011;7947;48.834;9.132;2023-11-19T04:40:10;0.00;;;0.00;;
15693;SDS011;7947;48.834;9.132;2023-11-19T04:43:14;0.10;;;0.10;;
15693;SDS011;7947;48.834;9.132;2023-11-19T04:46:19;0.07;;;0.00;;
15693;SDS011;7947;48.834;9.132;2023-11-19T04:49:23;0.00;;;0.00;;
15693;SDS011;7947;48.834;9.132;2023-11-19T04:52:29;0.28;;;0.05;;
15693;SDS011;7947;48.834;9.132;2023-11-19T04:55:33;0.10;;;0.10;;
15693;SDS011;7947;48.834;9.132;2023-11-19T04:58:37;0.00;;;0.00;;
15693;SDS011;7947;48.834;9.132;2023-11-19T05:01:45;0.43;;;0.10;;
15693;SDS011;7947;48.834;9.132;2023-11-19T05:04:50;0.00;;;0.00;;
15693;SDS011;7947;48.834;9.132;2023-11-19T05:07:54;1.08;;;0.00;;
15693;SDS011;7947;48.834;9.132;2023-11-19T05:10:57;0.20;;;0.10;;
15693;SDS011;7947;48.834;9.132;2023-11-19T05:14:02;0.00;;;0.00;;
15693;SDS011;7947;48.834;9.132;2023-11-19T05:17:08;0.32;;;0.28;;
15693;SDS011;7947;48.834;9.132;2023-11-19T05:20:12;0.20;;;0.10;;
15693;SDS011;7947;48.834;9.132;2023-11-19T05:23:16;0.10;;;0.10;;
15693;SDS011;7947;48.834;9.132;2023-11-19T05:26:22;0.00;;;0.00;;
15693;SDS011;7947;48.834;9.132;2023-11-19T05:29:27;0.00;;;0.00;;
15693;SDS011;7947;48.834;9.132;2023-11-19T05:32:32;0.00;;;0.00;;
15693;SDS011;7947;48.834;9.132;2023-11-19T05:35:36;0.00;;;0.00;;
15693;SDS011;7947;48.834;9.132;2023-11-19T05:38:40;0.20;;;0.10;;
15693;SDS011;7947;48.834;9.132;2023-11-19T05:41:43;0.00;;;0.00;;
15693;SDS011;7947;48.834;9.132;2023-11-19T05:44:47;0.00;;;0.00;;
15693;SDS011;7947;48.834;9.132;2023-11-19T05:47:52;0.00;;;0.00;;
15693;SDS011;7947;48.834;9.132;2023-11-19T05:50:55;0.00;;;0.00;;
15693;SDS011;7947;48.834;9.132;2023-11-19T05:53:59;0.45;;;0.13;;
15693;SDS011;7947;48.834;9.132;2023-11-19T05:57:03;0.00;;;0.00;;
15693;SDS011;7947;48.834;9.132;2023-11-19T06:00:08;0.10;;;0.03;;
15693;SDS011;7947;48.834;9.132;2023-11-19T06:03:16;0.20;;;0.20;;
15693;SDS011;7947;48.834;9.132;2023-11-19T06:06:20;1.08;;;0.20;;
15693;SDS011;7947;48.834;9.132;2023-11-19T06:09:23;0.52;;;0.38;;
15693;SDS011;7947;48.834;9.132;2023-11-19T06:12:27;0.20;;;0.17;;
15693;SDS011;7947;48.834;9.132;2023-11-19T06:15:30;0.10;;;0.10;;
15693;SDS011;7947;48.834;9.132;2023-11-19T06:18:36;1.38;;;0.10;;
15693;SDS011;7947;48.834;9.132;2023-11-19T06:21:40;0.20;;;0.10;;
15693;SDS011;7947;48.834;9.132;2023-11-19T06:24:43;0.20;;;0.13;;
15693;SDS011;7947;48.834;9.132;2023-11-19T06:27:47;0.10;;;0.10;;
15693;SDS011;7947;48.834;9.132;2023-11-19T06:30:51;0.00;;;0.00;;
15693;SDS011;7947;48.834;9.132;2023-11-19T06:33:56;0.68;;;0.22;;
15693;SDS011;7947;48.834;9.132;2023-11-19T06:36:59;0.55;;;0.20;;
15693;SDS011;7947;48.834;9.132;2023-11-19T06:40:05;0.10;;;0.10;;
15693;SDS011;7947;48.834;9.132;2023-11-19T06:43:10;0.20;;;0.10;;
15693;SDS011;7947;48.834;9.132;2023-11-19T06:46:15;0.10;;;0.10;;
15693;SDS011;7947;48.834;9.132;2023-11-19T06:49:21;0.10;;;0.10;;
15693;SDS011;7947;48.834;9.132;2023-11-19T06:52:25;0.10;;;0.10;;
15693;SDS011;7947;48.834;9.132;2023-11-19T06:55:28;0.10;;;0.10;;
15693;SDS011;7947;48.834;9.132;2023-11-19T06:58:32;0.60;;;0.50;;
15693;SDS011;7947;48.834;9.132;2023-11-19T07:01:39;0.45;;;0.20;;
15693;SDS011;7947;48.834;9.132;2023-11-19T07:04:46;0.52;;;0.30;;
15693;SDS011;7947;48.834;9.132;2023-11-19T07:07:50;0.10;;;0.10;;
15693;SDS011;7947;48.834;9.132;2023-11-19T07:10:54;0.43;;;0.20;;
15693;SDS011;7947;48.834;9.132;2023-11-19T07:13:57;0.10;;;0.10;;
15693;SDS011;7947;48.834;9.132;2023-11-19T07:17:02;0.20;;;0.20;;
15693;SDS011;7947;48.834;9.132;2023-11-19T07:20:07;0.57;;;0.20;;
15693;SDS011;7947;48.834;9.132;2023-11-19T07:23:15;0.10;;;0.10;;
15693;SDS011;7947;48.834;9.132;2023-11-19T07:26:18;0.20;;;0.20;;
15693;SDS011;7947;48.834;9.132;2023-11-19T07:29:22;0.25;;;0.25;;
15693;SDS011;7947;48.834;9.132;2023-11-19T07:32:30;0.20;;;0.20;;
15693;SDS011;7947;48.834;9.132;2023-11-19T07:35:35;0.30;;;0.20;;
15693;SDS011;7947;48.834;9.132;2023-11-19T07:38:39;0.68;;;0.28;;
15693;SDS011;7947;48.834;9.132;2023-11-19T07:41:43;0.80;;;0.30;;
15693;SDS011;7947;48.834;9.132;2023-11-19T07:44:47;0.20;;;0.20;;
15693;SDS011;7947;48.834;9.132;2023-11-19T07:47:51;0.82;;;0.30;;
15693;SDS011;7947;48.834;9.132;2023-11-19T07:50:56;0.52;;;0.32;;
15693;SDS011;7947;48.834;9.132;2023-11-19T07:54:00;0.77;;;0.43;;
15693;SDS011;7947;48.834;9.132;2023-11-19T07:57:03;0.43;;;0.30;;
15693;SDS011;7947;48.834;9.132;2023-11-19T08:00:08;0.20;;;0.20;;
15693;SDS011;7947;48.834;9.132;2023-11-19T08:03:14;0.28;;;0.22;;
15693;SDS011;7947;48.834;9.132;2023-11-19T08:06:19;0.20;;;0.20;;
15693;SDS011;7947;48.834;9.132;2023-11-19T08:09:23;0.35;;;0.30;;
15693;SDS011;7947;48.834;9.132;2023-11-19T08:12:27;0.43;;;0.30;;
15693;SDS011;7947;48.834;9.132;2023-11-19T08:15:31;0.90;;;0.38;;
15693;SDS011;7947;48.834;9.132;2023-11-19T08:18:35;3.28;;;0.20;;
15693;SDS011;7947;48.834;9.132;2023-11-19T08:21:41;0.20;;;0.20;;
15693;SDS011;7947;48.834;9.132;2023-11-19T08:24:44;0.38;;;0.38;;
15693;SDS011;7947;48.834;9.132;2023-11-19T08:27:48;0.30;;;0.30;;
15693;SDS011;7947;48.834;9.132;2023-11-19T08:30:51;0.28;;;0.20;;
15693;SDS011;7947;48.834;9.132;2023-11-19T08:33:55;0.30;;;0.30;;
15693;SDS011;7947;48.834;9.132;2023-11-19T08:37:00;0.40;;;0.32;;
15693;SDS011;7947;48.834;9.132;2023-11-19T08:40:05;1.17;;;0.30;;
15693;SDS011;7947;48.834;9.132;2023-11-19T08:43:09;0.70;;;0.40;;
15693;SDS011;7947;48.834;9.132;2023-11-19T08:46:13;0.28;;;0.20;;
15693;SDS011;7947;48.834;9.132;2023-11-19T08:49:17;0.40;;;0.30;;
15693;SDS011;7947;48.834;9.132;2023-11-19T08:52:22;0.57;;;0.45;;
15693;SDS011;7947;48.834;9.132;2023-11-19T08:55:26;2.85;;;0.65;;
15693;SDS011;7947;48.834;9.132;2023-11-19T08:58:30;0.35;;;0.20;;
15693;SDS011;7947;48.834;9.132;2023-11-19T09:01:36;1.00;;;0.35;;
15693;SDS011;7947;48.834;9.132;2023-11-19T09:04:39;0.60;;;0.40;;
15693;SDS011;7947;48.834;9.132;2023-11-19T09:07:44;0.20;;;0.20;;
15693;SDS011;7947;48.834;9.132;2023-11-19T09:10:48;1.63;;;0.52;;
15693;SDS011;7947;48.834;9.132;2023-11-19T09:13:52;0.40;;;0.40;;
15693;SDS011;7947;48.834;9.132;2023-11-19T09:16:56;0.47;;;0.30;;
15693;SDS011;7947;48.834;9.132;2023-11-19T09:20:01;0.30;;;0.30;;
15693;SDS011;7947;48.834;9.132;2023-11-19T09:23:05;0.52;;;0.40;;
15693;SDS011;7947;48.834;9.132;2023-11-19T09:26:11;0.75;;;0.40;;
15693;SDS011;7947;48.834;9.132;2023-11-19T09:29:14;0.63;;;0.40;;
15693;SDS011;7947;48.834;9.132;2023-11-19T09:32:18;0.57;;;0.47;;
15693;SDS011;7947;48.834;9.132;2023-11-19T09:35:21;0.85;;;0.50;;
15693;SDS011;7947;48.834;9.132;2023-11-19T09:38:27;0.50;;;0.30;;
15693;SDS011;7947;48.834;9.132;2023-11-19T09:41:30;0.63;;;0.30;;
15693;SDS011;7947;48.834;9.132;2023-11-19T09:44:36;0.73;;;0.40;;
15693;SDS011;7947;48.834;9.132;2023-11-19T09:47:42;2.45;;;0.47;;
15693;SDS011;7947;48.834;9.132;2023-11-19T09:50:48;5.18;;;0.57;;
15693;SDS011;7947;48.834;9.132;2023-11-19T09:53:53;0.98;;;0.50;;
15693;SDS011;7947;48.834;9.132;2023-11-19T09:56:58;0.52;;;0.52;;
15693;SDS011;7947;48.834;9.132;2023-11-19T10:00:06;2.08;;;0.55;;
15693;SDS011;7947;48.834;9.132;2023-11-19T10:03:11;0.88;;;0.30;;
15693;SDS011;7947;48.834;9.132;2023-11-19T10:06:16;0.90;;;0.45;;
15693;SDS011;7947;48.834;9.132;2023-11-19T10:09:22;0.50;;;0.30;;
15693;SDS011;7947;48.834;9.132;2023-11-19T10:12:26;0.52;;;0.40;;
15693;SDS011;7947;48.834;9.132;2023-11-19T10:15:29;0.38;;;0.38;;
15693;SDS011;7947;48.834;9.132;2023-11-19T10:18:42;0.40;;;0.30;;
15693;SDS011;7947;48.834;9.132;2023-11-19T10:21:48;0.95;;;0.50;;
15693;SDS011;7947;48.834;9.132;2023-11-19T10:24:53;1.05;;;0.40;;
15693;SDS011;7947;48.834;9.132;2023-11-19T10:27:57;0.20;;;0.20;;
15693;SDS011;7947;48.834;9.132;2023-11-19T10:31:01;0.80;;;0.20;;
15693;SDS011;7947;48.834;9.132;2023-11-19T10:34:15;0.28;;;0.10;;
15693;SDS011;7947;48.834;9.132;2023-11-19T10:37:28;1.50;;;0.30;;
15693;SDS011;7947;48.834;9.132;2023-11-19T10:43:53;0.50;;;0.40;;
15693;SDS011;7947;48.834;9.132;2023-11-19T10:46:57;1.05;;;0.22;;
15693;SDS011;7947;48.834;9.132;2023-11-19T10:50:02;1.45;;;0.30;;
15693;SDS011;7947;48.834;9.132;2023-11-19T10:53:06;1.75;;;0.50;;
15693;SDS011;7947;48.834;9.132;2023-11-19T10:56:13;0.85;;;0.38;;
15693;SDS011;7947;48.834;9.132;2023-11-19T10:59:20;1.08;;;0.45;;
15693;SDS011;7947;48.834;9.132;2023-11-19T11:02:27;2.78;;;0.40;;
15693;SDS011;7947;48.834;9.132;2023-11-19T11:05:33;2.63;;;0.50;;
15693;SDS011;7947;48.834;9.132;2023-11-19T11:08:37;0.85;;;0.47;;
15693;SDS011;7947;48.834;9.132;2023-11-19T11:11:45;0.98;;;0.50;;
15693;SDS011;7947;48.834;9.132;2023-11-19T11:14:50;2.08;;;0.50;;
15693;SDS011;7947;48.834;9.132;2023-11-19T11:17:56;0.73;;;0.35;;
15693;SDS011;7947;48.834;9.132;2023-11-19T11:21:05;0.80;;;0.40;;
15693;SDS011;7947;48.834;9.132;2023-11-19T11:28:06;1.13;;;0.40;;
15693;SDS011;7947;48.834;9.132;2023-11-19T11:31:22;1.60;;;0.70;;
15693;SDS011;7947;48.834;9.132;2023-11-19T11:34:43;0.63;;;0.45;;
15693;SDS011;7947;48.834;9.132;2023-11-19T11:38:00;0.90;;;0.40;;
15693;SDS011;7947;48.834;9.132;2023-11-19T11:41:15;0.30;;;0.30;;
15693;SDS011;7947;48.834;9.132;2023-11-19T11:44:33;0.57;;;0.40;;
15693;SDS011;7947;48.834;9.132;2023-11-19T11:48:09;0.45;;;0.38;;
15693;SDS011;7947;48.834;9.132;2023-11-19T11:51:14;0.98;;;0.40;;
15693;SDS011;7947;48.834;9.132;2023-11-19T11:54:25;1.38;;;0.60;;
15693;SDS011;7947;48.834;9.132;2023-11-19T11:57:30;0.95;;;0.57;;
15693;SDS011;7947;48.834;9.132;2023-11-19T12:00:42;0.73;;;0.30;;
15693;SDS011;7947;48.834;9.132;2023-11-19T12:03:46;1.40;;;0.50;;
15693;SDS011;7947;48.834;9.132;2023-11-19T12:07:02;0.77;;;0.30;;
15693;SDS011;7947;48.834;9.132;2023-11-19T12:10:09;1.42;;;0.60;;
15693;SDS011;7947;48.834;9.132;2023-11-19T12:13:14;0.52;;;0.52;;
15693;SDS011;7947;48.834;9.132;2023-11-19T12:16:21;0.75;;;0.60;;
15693;SDS011;7947;48.834;9.132;2023-11-19T12:19:26;0.40;;;0.30;;
15693;SDS011;7947;48.834;9.132;2023-11-19T12:22:31;1.85;;;0.40;;
15693;SDS011;7947;48.834;9.132;2023-11-19T12:25:34;0.75;;;0.20;;
15693;SDS011;7947;48.834;9.132;2023-11-19T12:28:38;2.13;;;0.40;;
15693;SDS011;7947;48.834;9.132;2023-11-19T12:31:53;2.08;;;0.40;;
15693;SDS011;7947;48.834;9.132;2023-11-19T12:35:14;1.15;;;0.50;;
15693;SDS011;7947;48.834;9.132;2023-11-19T12:38:18;0.93;;;0.60;;
15693;SDS011;7947;48.834;9.132;2023-11-19T12:41:22;1.60;;;0.43;;
15693;SDS011;7947;48.834;9.132;2023-11-19T12:44:26;0.77;;;0.20;;
15693;SDS011;7947;48.834;9.132;2023-11-19T12:47:31;2.17;;;0.38;;
15693;SDS011;7947;48.834;9.132;2023-11-19T12:50:50;1.00;;;0.30;;
15693;SDS011;7947;48.834;9.132;2023-11-19T12:53:55;1.48;;;0.60;;
15693;SDS011;7947;48.834;9.132;2023-11-19T12:57:00;0.28;;;0.10;;
15693;SDS011;7947;48.834;9.132;2023-11-19T13:00:04;2.65;;;0.30;;
15693;SDS011;7947;48.834;9.132;2023-11-19T13:03:12;0.85;;;0.30;;
15693;SDS011;7947;48.834;9.132;2023-11-19T13:06:31;2.25;;;0.47;;
15693;SDS011;7947;48.834;9.132;2023-11-19T13:09:35;0.50;;;0.30;;
15693;SDS011;7947;48.834;9.132;2023-11-19T13:12:39;1.60;;;0.30;;
15693;SDS011;7947;48.834;9.132;2023-11-19T13:15:42;1.38;;;0.35;;
15693;SDS011;7947;48.834;9.132;2023-11-19T13:18:48;1.42;;;0.50;;
15693;SDS011;7947;48.834;9.132;2023-11-19T13:21:53;0.50;;;0.28;;
15693;SDS011;7947;48.834;9.132;2023-11-19T13:24:56;1.40;;;0.25;;
15693;SDS011;7947;48.834;9.132;2023-11-19T13:28:00;0.40;;;0.22;;
15693;SDS011;7947;48.834;9.132;2023-11-19T13:31:05;1.15;;;0.32;;
15693;SDS011;7947;48.834;9.132;2023-11-19T13:34:11;1.70;;;0.30;;
15693;SDS011;7947;48.834;9.132;2023-11-19T13:37:14;0.50;;;0.50;;
15693;SDS011;7947;48.834;9.132;2023-11-19T13:40:18;0.82;;;0.40;;
15693;SDS011;7947;48.834;9.132;2023-11-19T13:43:24;0.82;;;0.30;;
15693;SDS011;7947;48.834;9.132;2023-11-19T13:46:29;1.95;;;0.43;;
15693;SDS011;7947;48.834;9.132;2023-11-19T13:49:34;2.08;;;0.43;;
15693;SDS011;7947;48.834;9.132;2023-11-19T13:52:39;2.45;;;0.63;;
15693;SDS011;7947;48.834;9.132;2023-11-19T13:55:43;0.30;;;0.22;;
15693;SDS011;7947;48.834;9.132;2023-11-19T13:58:47;0.50;;;0.40;;
15693;SDS011;7947;48.834;9.132;2023-11-19T14:01:50;0.20;;;0.20;;
15693;SDS011;7947;48.834;9.132;2023-11-19T14:04:55;0.60;;;0.30;;
15693;SDS011;7947;48.834;9.132;2023-11-19T14:07:59;1.13;;;0.50;;
15693;SDS011;7947;48.834;9.132;2023-11-19T14:11:09;0.30;;;0.20;;
15693;SDS011;7947;48.834;9.132;2023-11-19T14:14:13;0.10;;;0.10;;
15693;SDS011;7947;48.834;9.132;2023-11-19T14:17:17;1.17;;;0.30;;
15693;SDS011;7947;48.834;9.132;2023-11-19T14:20:23;1.98;;;0.40;;
15693;SDS011;7947;48.834;9.132;2023-11-19T14:23:27;0.25;;;0.25;;
15693;SDS011;7947;48.834;9.132;2023-11-19T14:26:30;1.10;;;0.28;;
15693;SDS011;7947;48.834;9.132;2023-11-19T14:29:34;0.63;;;0.32;;
15693;SDS011;7947;48.834;9.132;2023-11-19T14:32:39;0.95;;;0.32;;
15693;SDS011;7947;48.834;9.132;2023-11-19T14:35:45;0.95;;;0.40;;
15693;SDS011;7947;48.834;9.132;2023-11-19T14:38:50;1.00;;;0.40;;
15693;SDS011;7947;48.834;9.132;2023-11-19T14:41:53;0.70;;;0.50;;
15693;SDS011;7947;48.834;9.132;2023-11-19T14:45:00;0.47;;;0.40;;
15693;SDS011;7947;48.834;9.132;2023-11-19T14:48:04;1.15;;;0.40;;
15693;SDS011;7947;48.834;9.132;2023-11-19T14:51:09;0.30;;;0.22;;
15693;SDS011;7947;48.834;9.132;2023-11-19T14:54:13;0.75;;;0.52;;
15693;SDS011;7947;48.834;9.132;2023-11-19T14:57:17;0.80;;;0.38;;
15693;SDS011;7947;48.834;9.132;2023-11-19T15:00:21;0.63;;;0.40;;
15693;SDS011;7947;48.834;9.132;2023-11-19T15:03:24;1.08;;;0.52;;
15693;SDS011;7947;48.834;9.132;2023-11-19T15:06:30;0.75;;;0.35;;
15693;SDS011;7947;48.834;9.132;2023-11-19T15:09:36;0.65;;;0.43;;
15693;SDS011;7947;48.834;9.132;2023-11-19T15:12:39;2.72;;;0.50;;
15693;SDS011;7947;48.834;9.132;2023-11-19T15:15:43;1.75;;;0.45;;
15693;SDS011;7947;48.834;9.132;2023-11-19T15:18:47;1.25;;;0.52;;
15693;SDS011;7947;48.834;9.132;2023-11-19T15:21:52;0.32;;;0.30;;
15693;SDS011;7947;48.834;9.132;2023-11-19T15:24:57;0.40;;;0.32;;
15693;SDS011;7947;48.834;9.132;2023-11-19T15:28:00;1.27;;;0.30;;
15693;SDS011;7947;48.834;9.132;2023-11-19T15:31:04;1.17;;;0.65;;
15693;SDS011;7947;48.834;9.132;2023-11-19T15:34:07;0.63;;;0.40;;
15693;SDS011;7947;48.834;9.132;2023-11-19T15:37:12;0.80;;;0.43;;
15693;SDS011;7947;48.834;9.132;2023-11-19T15:40:17;0.38;;;0.28;;
15693;SDS011;7947;48.834;9.132;2023-11-19T15:43:21;0.93;;;0.50;;
15693;SDS011;7947;48.834;9.132;2023-11-19T15:46:24;1.38;;;0.35;;
15693;SDS011;7947;48.834;9.132;2023-11-19T15:49:28;0.93;;;0.40;;
15693;SDS011;7947;48.834;9.132;2023-11-19T15:52:33;3.08;;;0.82;;
15693;SDS011;7947;48.834;9.132;2023-11-19T15:55:37;1.40;;;0.50;;
15693;SDS011;7947;48.834;9.132;2023-11-19T15:58:40;1.25;;;0.77;;
15693;SDS011;7947;48.834;9.132;2023-11-19T16:01:44;0.80;;;0.70;;
15693;SDS011;7947;48.834;9.132;2023-11-19T16:04:48;0.40;;;0.40;;
15693;SDS011;7947;48.834;9.132;2023-11-19T16:07:53;1.17;;;0.60;;
15693;SDS011;7947;48.834;9.132;2023-11-19T16:10:57;0.95;;;0.55;;
15693;SDS011;7947;48.834;9.132;2023-11-19T16:14:01;2.13;;;0.75;;
15693;SDS011;7947;48.834;9.132;2023-11-19T16:17:04;0.50;;;0.50;;
15693;SDS011;7947;48.834;9.132;2023-11-19T16:20:09;1.80;;;0.90;;
15693;SDS011;7947;48.834;9.132;2023-11-19T16:23:15;2.13;;;1.10;;
15693;SDS011;7947;48.834;9.132;2023-11-19T16:26:19;1.58;;;0.90;;
15693;SDS011;7947;48.834;9.132;2023-11-19T16:29:23;0.85;;;0.68;;
15693;SDS011;7947;48.834;9.132;2023-11-19T16:32:26;0.80;;;0.60;;
15693;SDS011;7947;48.834;9.132;2023-11-19T16:35:30;0.70;;;0.52;;
15693;SDS011;7947;48.834;9.132;2023-11-19T16:38:35;2.72;;;0.90;;
15693;SDS011;7947;48.834;9.132;2023-11-19T16:41:39;2.58;;;0.73;;
15693;SDS011;7947;48.834;9.132;2023-11-19T16:44:44;1.17;;;0.70;;
15693;SDS011;7947;48.834;9.132;2023-11-19T16:47:48;1.02;;;0.80;;
15693;SDS011;7947;48.834;9.132;2023-11-19T16:50:52;1.23;;;1.00;;
15693;SDS011;7947;48.834;9.132;2023-11-19T16:54:00;1.38;;;0.80;;
15693;SDS011;7947;48.834;9.132;2023-11-19T16:57:04;1.38;;;0.70;;
15693;SDS011;7947;48.834;9.132;2023-11-19T17:00:08;0.55;;;0.43;;
15693;SDS011;7947;48.834;9.132;2023-11-19T17:03:13;2.67;;;0.90;;
15693;SDS011;7947;48.834;9.132;2023-11-19T17:06:16;1.60;;;0.90;;
15693;SDS011;7947;48.834;9.132;2023-11-19T17:09:21;3.28;;;1.00;;
15693;SDS011;7947;48.834;9.132;2023-11-19T17:12:25;2.03;;;1.27;;
15693;SDS011;7947;48.834;9.132;2023-11-19T17:15:28;3.08;;;1.02;;
15693;SDS011;7947;48.834;9.132;2023-11-19T17:18:32;1.80;;;1.10;;
15693;SDS011;7947;48.834;9.132;2023-11-19T17:21:36;1.05;;;0.63;;
15693;SDS011;7947;48.834;9.132;2023-11-19T17:24:41;1.45;;;0.95;;
15693;SDS011;7947;48.834;9.132;2023-11-19T17:27:45;6.38;;;1.10;;
15693;SDS011;7947;48.834;9.132;2023-11-19T17:30:48;5.05;;;2.30;;
15693;SDS011;7947;48.834;9.132;2023-11-19T17:33:52;2.13;;;1.67;;
15693;SDS011;7947;48.834;9.132;2023-11-19T17:36:55;2.17;;;1.30;;
15693;SDS011;7947;48.834;9.132;2023-11-19T17:40:00;1.58;;;1.08;;
15693;SDS011;7947;48.834;9.132;2023-11-19T17:43:04;2.30;;;1.10;;
15693;SDS011;7947;48.834;9.132;2023-11-19T17:46:08;3.72;;;1.15;;
15693;SDS011;7947;48.834;9.132;2023-11-19T17:49:12;1.10;;;0.88;;
15693;SDS011;7947;48.834;9.132;2023-11-19T17:52:15;1.65;;;1.05;;
15693;SDS011;7947;48.834;9.132;2023-11-19T17:55:22;1.95;;;1.10;;
15693;SDS011;7947;48.834;9.132;2023-11-19T17:58:25;1.23;;;0.75;;
15693;SDS011;7947;48.834;9.132;2023-11-19T18:01:29;2.03;;;0.80;;
15693;SDS011;7947;48.834;9.132;2023-11-19T18:04:33;2.60;;;0.65;;
15693;SDS011;7947;48.834;9.132;2023-11-19T18:07:39;1.02;;;0.70;;
15693;SDS011;7947;48.834;9.132;2023-11-19T18:10:46;2.95;;;1.60;;
15693;SDS011;7947;48.834;9.132;2023-11-19T18:13:50;2.25;;;0.90;;
15693;SDS011;7947;48.834;9.132;2023-11-19T18:16:56;2.45;;;1.08;;
15693;SDS011;7947;48.834;9.132;2023-11-19T18:19:59;2.20;;;1.20;;
15693;SDS011;7947;48.834;9.132;2023-11-19T18:23:03;2.05;;;1.10;;
15693;SDS011;7947;48.834;9.132;2023-11-19T18:26:08;1.85;;;0.80;;
15693;SDS011;7947;48.834;9.132;2023-11-19T18:29:12;1.13;;;0.70;;
15693;SDS011;7947;48.834;9.132;2023-11-19T18:32:18;1.70;;;1.02;;
15693;SDS011;7947;48.834;9.132;2023-11-19T18:35:22;2.10;;;0.90;;
15693;SDS011;7947;48.834;9.132;2023-11-19T18:38:26;1.63;;;0.93;;
15693;SDS011;7947;48.834;9.132;2023-11-19T18:41:34;1.45;;;0.98;;
15693;SDS011;7947;48.834;9.132;2023-11-19T18:44:38;1.27;;;0.90;;
15693;SDS011;7947;48.834;9.132;2023-11-19T18:47:41;2.42;;;0.98;;
15693;SDS011;7947;48.834;9.132;2023-11-19T18:50:45;2.38;;;1.10;;
15693;SDS011;7947;48.834;9.132;2023-11-19T18:53:53;3.17;;;0.98;;
15693;SDS011;7947;48.834;9.132;2023-11-19T18:56:59;3.25;;;1.00;;
15693;SDS011;7947;48.834;9.132;2023-11-19T19:00:03;2.85;;;1.20;;